createdAt,value
2023-03-23T15:58:11.691Z,19.20
2023-03-23T16:00:40.068Z,19.20
2023-03-23T16:03:11.764Z,19.10
2023-03-23T16:05:39.622Z,19.00
2023-03-23T16:08:11.234Z,19.00
2023-03-23T16:10:38.511Z,19.00
2023-03-23T16:13:06.335Z,19.00
2023-03-23T16:15:33.485Z,19.00
2023-03-23T16:18:00.922Z,18.90
2023-03-23T16:20:30.470Z,18.90
2023-03-23T16:22:57.705Z,18.80
2023-03-23T16:25:25.067Z,18.80
2023-03-23T16:27:54.499Z,18.80
2023-03-23T16:30:25.648Z,18.70
2023-03-23T16:32:54.889Z,18.70
2023-03-23T16:35:24.432Z,18.70
2023-03-23T16:38:07.659Z,18.80
2023-03-23T16:40:38.903Z,18.60
2023-03-23T16:43:09.293Z,18.40
2023-03-23T16:45:43.728Z,18.20
2023-03-23T16:48:12.871Z,18.00
2023-03-23T16:50:40.760Z,17.70
2023-03-23T16:53:08.797Z,17.40
2023-03-23T16:55:37.405Z,17.20
2023-03-23T16:58:16.253Z,16.90
2023-03-23T17:00:47.678Z,16.50
2023-03-23T17:03:16.474Z,16.10
2023-03-23T17:05:45.278Z,16.00
2023-03-23T17:08:12.749Z,15.90
2023-03-23T17:10:41.187Z,15.70
2023-03-23T17:13:08.868Z,15.50
2023-03-23T17:15:41.826Z,15.50
2023-03-23T17:18:10.726Z,15.40
2023-03-23T17:20:38.428Z,15.30
2023-03-23T17:23:05.935Z,15.20
2023-03-23T17:25:33.150Z,15.30
2023-03-23T17:28:05.369Z,15.20
2023-03-23T17:30:33.453Z,15.20
2023-03-23T17:33:00.623Z,15.10
2023-03-23T17:35:27.932Z,14.90
2023-03-23T17:37:55.065Z,14.90
2023-03-23T17:40:22.277Z,14.70
2023-03-23T17:42:49.394Z,14.70
2023-03-23T17:45:16.718Z,14.60
2023-03-23T17:47:43.888Z,14.50
2023-03-23T17:50:12.799Z,14.50
2023-03-23T17:52:41.411Z,14.40
2023-03-23T17:55:08.721Z,14.40
2023-03-23T17:57:35.932Z,14.30
2023-03-23T18:00:07.357Z,14.10
2023-03-23T18:02:36.159Z,14.10
2023-03-23T18:05:03.519Z,14.10
2023-03-23T18:07:31.488Z,14.10
2023-03-23T18:09:59.984Z,13.90
2023-03-23T18:12:27.606Z,13.80
2023-03-23T18:14:58.628Z,13.70
2023-03-23T18:17:26.612Z,13.70
2023-03-23T18:19:54.507Z,13.60
2023-03-23T18:22:22.121Z,13.50
2023-03-23T18:24:49.771Z,13.50
2023-03-23T18:27:17.363Z,13.50
2023-03-23T18:29:44.525Z,13.40
2023-03-23T18:32:11.873Z,13.40
2023-03-23T18:34:41.701Z,13.30
2023-03-23T18:37:09.351Z,13.20
2023-03-23T18:39:38.034Z,13.10
2023-03-23T18:42:06.197Z,13.10
2023-03-23T18:44:33.816Z,12.90
2023-03-23T18:47:01.016Z,12.60
2023-03-23T18:49:29.194Z,12.40
2023-03-23T18:51:56.700Z,12.40
2023-03-23T18:54:23.818Z,12.40
2023-03-23T18:56:51.068Z,12.40
2023-03-23T18:59:18.199Z,12.40
2023-03-23T19:01:45.609Z,12.40
2023-03-23T19:04:13.657Z,12.40
2023-03-23T19:06:41.056Z,12.40
2023-03-23T19:09:08.255Z,12.40
2023-03-23T19:11:35.724Z,12.40
2023-03-23T19:14:03.810Z,12.40
2023-03-23T19:16:34.007Z,12.30
2023-03-23T19:19:02.380Z,12.40
2023-03-23T19:21:32.066Z,12.30
2023-03-23T19:24:00.799Z,12.20
2023-03-23T19:26:33.135Z,12.00
2023-03-23T19:31:32.576Z,11.60
2023-03-23T19:34:00.815Z,11.30
2023-03-23T19:36:28.367Z,11.10
2023-03-23T19:38:57.669Z,11.00
2023-03-23T19:41:27.589Z,11.00
2023-03-23T19:43:55.008Z,10.90
2023-03-23T19:46:22.280Z,11.00
2023-03-23T19:48:50.709Z,11.00
2023-03-23T19:51:21.146Z,11.10
2023-03-23T19:53:48.942Z,11.20
2023-03-23T19:56:18.640Z,11.20
2023-03-23T19:58:46.237Z,11.20
2023-03-23T20:01:13.718Z,11.20
2023-03-23T20:03:42.285Z,11.20
2023-03-23T20:06:12.595Z,11.20
2023-03-23T20:08:45.649Z,11.20
2023-03-23T20:11:17.780Z,11.10
2023-03-23T20:16:14.120Z,10.80
2023-03-23T20:18:41.763Z,10.90
2023-03-23T20:21:11.535Z,10.80
2023-03-23T20:23:40.315Z,10.90
2023-03-23T20:26:14.000Z,10.90
2023-03-23T20:28:42.767Z,11.00
2023-03-23T20:31:23.134Z,11.00
2023-03-23T20:34:00.630Z,10.80
2023-03-23T20:36:35.028Z,10.70
2023-03-23T20:39:10.583Z,10.60
2023-03-23T20:41:40.365Z,10.20
2023-03-23T20:44:14.382Z,10.30
2023-03-23T20:46:43.474Z,10.20
2023-03-23T20:49:12.009Z,10.20
2023-03-23T20:51:40.080Z,10.20
2023-03-23T20:54:07.383Z,10.10
2023-03-23T20:56:35.007Z,10.00
2023-03-23T20:59:02.801Z,9.90
2023-03-23T21:01:33.317Z,10.00
2023-03-23T21:04:03.339Z,10.00
2023-03-23T21:06:33.644Z,9.90
2023-03-23T21:09:01.038Z,9.80
2023-03-23T21:11:28.675Z,9.70
2023-03-23T21:13:56.627Z,9.50
2023-03-23T21:16:24.519Z,9.40
2023-03-23T21:18:52.152Z,9.40
2023-03-23T21:21:19.523Z,9.40
2023-03-23T21:23:52.102Z,9.30
2023-03-23T21:26:22.597Z,9.30
2023-03-23T21:28:50.948Z,9.30
2023-03-23T21:31:18.760Z,9.30
2023-03-23T21:33:46.280Z,9.30
2023-03-23T21:36:13.397Z,9.40
2023-03-23T21:38:41.056Z,9.50
2023-03-23T21:41:13.587Z,9.50
2023-03-23T21:43:41.244Z,9.50
2023-03-23T21:46:09.886Z,9.50
2023-03-23T21:48:41.599Z,9.70
2023-03-23T21:51:11.845Z,9.70
2023-03-23T21:53:39.414Z,9.60
2023-03-23T21:56:09.638Z,9.50
2023-03-23T21:58:38.156Z,9.30
2023-03-23T22:01:05.680Z,9.20
2023-03-23T22:03:35.295Z,9.30
2023-03-23T22:06:11.580Z,9.30
2023-03-23T22:08:41.297Z,9.20
2023-03-23T22:11:13.472Z,9.10
2023-03-23T22:13:42.177Z,8.90
2023-03-23T22:16:11.737Z,8.70
2023-03-23T22:18:40.374Z,8.60
2023-03-23T22:21:07.850Z,8.70
2023-03-23T22:23:35.672Z,8.60
2023-03-23T22:26:04.066Z,8.70
2023-03-23T22:28:31.889Z,8.70
2023-03-23T22:31:04.591Z,8.70
2023-03-23T22:33:32.658Z,8.70
2023-03-23T22:36:05.981Z,8.70
2023-03-23T22:38:34.994Z,8.80
2023-03-23T22:41:04.638Z,8.90
2023-03-23T22:43:31.796Z,8.90
2023-03-23T22:45:59.263Z,9.00
2023-03-23T22:48:27.532Z,9.00
2023-03-23T22:50:54.833Z,9.20
2023-03-23T22:53:22.355Z,9.30
2023-03-23T22:55:57.394Z,9.30
2023-03-23T22:58:28.233Z,9.20
2023-03-23T23:01:01.558Z,9.10
2023-03-23T23:03:30.053Z,8.90
2023-03-23T23:05:58.930Z,8.70
2023-03-23T23:08:27.566Z,8.60
2023-03-23T23:10:56.669Z,8.70
2023-03-23T23:13:24.442Z,8.70
2023-03-23T23:15:54.478Z,8.90
2023-03-23T23:18:21.966Z,9.00
2023-03-23T23:20:54.769Z,9.20
2023-03-23T23:23:23.565Z,9.20
2023-03-23T23:25:51.025Z,9.00
2023-03-23T23:28:19.351Z,9.00
2023-03-23T23:30:47.227Z,8.80
2023-03-23T23:33:14.718Z,8.80
2023-03-23T23:35:42.572Z,8.60
2023-03-23T23:38:12.506Z,8.70
2023-03-23T23:40:41.335Z,8.50
2023-03-23T23:43:13.215Z,8.60
2023-03-23T23:45:41.012Z,8.50
2023-03-23T23:48:09.087Z,8.60
2023-03-23T23:50:36.644Z,8.60
2023-03-23T23:53:04.905Z,8.80
2023-03-23T23:55:32.624Z,9.10
2023-03-23T23:57:59.914Z,8.90
